createdAt,value
2018-12-05T00:00:13.656Z,49.17
2018-12-05T00:01:13.675Z,49.46
2018-12-05T00:02:13.737Z,48.30
2018-12-05T00:03:13.718Z,47.33
2018-12-05T00:04:13.726Z,47.62
2018-12-05T00:05:13.745Z,47.42
2018-12-05T00:06:13.766Z,46.26
2018-12-05T00:07:13.780Z,45.78
2018-12-05T00:08:13.802Z,48.20
2018-12-05T00:09:13.817Z,48.10
2018-12-05T00:10:13.837Z,48.78
2018-12-05T00:11:13.852Z,51.59
2018-12-05T00:12:13.868Z,48.30
2018-12-05T00:13:13.889Z,47.91
2018-12-05T00:14:13.907Z,47.91
2018-12-05T00:15:13.924Z,48.69
2018-12-05T00:16:13.941Z,49.37
2018-12-05T00:17:13.961Z,51.91
2018-12-05T00:18:13.977Z,52.20
2018-12-05T00:19:13.995Z,52.98
2018-12-05T00:20:14.013Z,53.85
2018-12-05T00:21:14.055Z,51.59
2018-12-05T00:22:14.048Z,50.36
2018-12-05T00:23:14.067Z,51.43
2018-12-05T00:24:14.087Z,53.56
2018-12-05T00:25:14.102Z,53.30
2018-12-05T00:26:14.121Z,54.75
2018-12-05T00:27:14.138Z,56.28
2018-12-05T00:28:14.158Z,55.92
2018-12-05T00:29:14.175Z,53.95
2018-12-05T00:30:14.195Z,54.66
2018-12-05T00:31:14.212Z,57.37
2018-12-05T00:32:14.229Z,56.50
2018-12-05T00:33:14.251Z,58.73
2018-12-05T00:34:14.800Z,58.90
2018-12-05T00:35:14.283Z,58.34
2018-12-05T00:36:14.301Z,58.25
2018-12-05T00:37:14.321Z,57.57
2018-12-05T00:38:14.337Z,62.71
2018-12-05T00:39:14.357Z,60.38
2018-12-05T00:40:14.374Z,61.65
2018-12-05T00:41:14.392Z,63.10
2018-12-05T00:42:14.411Z,65.92
2018-12-05T00:43:14.427Z,60.58
2018-12-05T00:44:14.460Z,60.09
2018-12-05T00:45:14.467Z,65.20
2018-12-05T00:46:14.483Z,59.61
2018-12-05T00:47:14.500Z,59.80
2018-12-05T00:48:14.521Z,62.10
2018-12-05T00:49:14.539Z,58.51
2018-12-05T00:50:14.558Z,63.17
2018-12-05T00:51:14.577Z,62.49
2018-12-05T00:52:14.593Z,63.17
2018-12-05T00:53:14.613Z,60.35
2018-12-05T00:54:14.630Z,61.52
2018-12-05T00:55:14.648Z,61.65
2018-12-05T00:56:14.666Z,62.62
2018-12-05T00:57:14.686Z,62.23
2018-12-05T00:58:14.704Z,63.20
2018-12-05T00:59:14.723Z,65.63
2018-12-05T01:00:14.742Z,63.10
2018-12-05T01:01:14.759Z,65.33
2018-12-05T01:02:14.778Z,62.71
2018-12-05T01:03:14.794Z,64.26
2018-12-05T01:04:14.815Z,65.92
2018-12-05T01:05:14.844Z,65.47
2018-12-05T01:06:14.852Z,68.54
2018-12-05T01:07:14.871Z,65.82
2018-12-05T01:08:14.897Z,65.37
2018-12-05T01:09:14.905Z,68.38
2018-12-05T01:10:14.923Z,67.70
2018-12-05T01:11:14.940Z,68.44
2018-12-05T01:12:14.960Z,68.63
2018-12-05T01:13:14.979Z,66.30
2018-12-05T01:14:14.996Z,63.78
2018-12-05T01:15:15.015Z,64.46
2018-12-05T01:16:15.035Z,63.78
2018-12-05T01:17:15.056Z,64.85
2018-12-05T01:18:15.072Z,66.02
2018-12-05T01:19:15.094Z,65.72
2018-12-05T01:20:15.116Z,67.37
2018-12-05T01:21:15.159Z,67.57
2018-12-05T01:22:15.154Z,65.72
2018-12-05T01:23:15.164Z,69.51
2018-12-05T01:24:15.182Z,65.53
2018-12-05T01:25:15.202Z,67.57
2018-12-05T01:26:15.220Z,69.60
2018-12-05T01:27:15.238Z,66.60
2018-12-05T01:28:15.259Z,68.35
2018-12-05T01:29:17.042Z,66.89
2018-12-05T01:30:15.294Z,65.82
2018-12-05T01:31:15.312Z,64.75
2018-12-05T01:32:15.332Z,64.56
2018-12-05T01:33:17.047Z,67.47
2018-12-05T01:34:15.368Z,64.95
2018-12-05T01:35:15.447Z,65.43
2018-12-05T01:36:15.451Z,68.73
2018-12-05T01:37:15.425Z,70.48
2018-12-05T01:38:15.444Z,68.28
2018-12-05T01:39:15.461Z,68.44
2018-12-05T01:40:15.478Z,71.16
2018-12-05T01:41:15.497Z,70.00
2018-12-05T01:42:15.516Z,72.33
2018-12-05T01:43:15.532Z,70.39
2018-12-05T01:44:15.553Z,67.18
2018-12-05T01:45:15.571Z,67.96
2018-12-05T01:46:15.590Z,65.72
2018-12-05T01:47:15.616Z,68.44
2018-12-05T01:48:17.635Z,68.38
2018-12-05T01:49:15.644Z,69.64
2018-12-05T01:50:15.664Z,73.72
2018-12-05T01:51:15.680Z,74.88
2018-12-05T01:52:15.750Z,71.68
2018-12-05T01:53:15.721Z,73.62
2018-12-05T01:54:15.739Z,71.97
2018-12-05T01:55:15.773Z,73.33
2018-12-05T01:56:15.773Z,77.80
2018-12-05T01:57:15.793Z,77.02
2018-12-05T01:58:15.813Z,78.81
2018-12-05T01:59:15.832Z,80.13
2018-12-05T02:00:17.583Z,79.94
2018-12-05T02:01:15.874Z,80.91
2018-12-05T02:02:17.562Z,78.48
2018-12-05T02:03:15.905Z,78.19
2018-12-05T02:04:15.924Z,79.35
2018-12-05T02:05:16.054Z,79.84
2018-12-05T02:06:15.958Z,78.38
2018-12-05T02:07:15.977Z,80.27
2018-12-05T02:08:15.997Z,79.35
2018-12-05T02:09:16.015Z,79.64
2018-12-05T02:10:16.035Z,79.35
2018-12-05T02:11:16.073Z,80.13
2018-12-05T02:12:16.071Z,80.23
2018-12-05T02:13:16.090Z,82.70
2018-12-05T02:14:16.184Z,80.66
2018-12-05T02:15:16.128Z,80.46
2018-12-05T02:16:16.144Z,82.11
2018-12-05T02:17:16.164Z,82.60
2018-12-05T02:18:16.189Z,83.09
2018-12-05T02:19:16.205Z,82.99
2018-12-05T02:20:16.219Z,83.37
2018-12-05T02:21:16.239Z,81.63
2018-12-05T02:22:16.256Z,83.37
2018-12-05T02:23:16.277Z,86.49
2018-12-05T02:24:16.292Z,89.31
2018-12-05T02:25:16.314Z,86.33
2018-12-05T02:26:16.337Z,85.46
2018-12-05T02:27:16.381Z,85.71
2018-12-05T02:28:16.373Z,86.68
2018-12-05T02:29:16.392Z,86.24
2018-12-05T02:30:16.411Z,87.40
2018-12-05T02:31:16.429Z,86.04
2018-12-05T02:32:16.447Z,89.25
2018-12-05T02:33:16.487Z,87.21
2018-12-05T02:34:16.486Z,88.09
2018-12-05T02:35:16.506Z,90.03
2018-12-05T02:36:16.521Z,88.38
2018-12-05T02:37:16.542Z,89.25
2018-12-05T02:38:16.557Z,90.42
2018-12-05T02:39:16.576Z,93.24
2018-12-05T02:40:16.602Z,92.85
2018-12-05T02:41:16.638Z,93.19
2018-12-05T02:42:16.637Z,91.53
2018-12-05T02:43:16.655Z,92.02
2018-12-05T02:44:16.673Z,94.65
2018-12-05T02:45:16.691Z,94.16
2018-12-05T02:46:16.714Z,93.96
2018-12-05T02:47:16.733Z,94.16
2018-12-05T02:48:16.752Z,96.11
2018-12-05T02:49:16.770Z,96.30
2018-12-05T02:50:16.792Z,93.48
2018-12-05T02:51:16.806Z,94.26
2018-12-05T02:52:16.826Z,93.67
2018-12-05T02:53:16.849Z,93.48
2018-12-05T02:54:16.863Z,94.26
2018-12-05T02:55:16.883Z,94.74
2018-12-05T02:56:16.902Z,94.84
2018-12-05T02:57:16.924Z,95.62
2018-12-05T02:58:16.941Z,94.84
2018-12-05T02:59:16.959Z,95.13
2018-12-05T03:00:16.980Z,96.88
2018-12-05T03:01:16.996Z,99.02
2018-12-05T03:02:17.027Z,97.47
2018-12-05T03:03:17.036Z,97.66
2018-12-05T03:04:17.063Z,96.20
2018-12-05T03:05:17.075Z,99.12
2018-12-05T03:06:17.100Z,97.86
2018-12-05T03:07:17.112Z,98.78
2018-12-05T03:08:17.131Z,99.99
2018-12-05T03:09:17.162Z,99.99
2018-12-05T03:10:17.172Z,99.99
2018-12-05T03:11:17.191Z,99.99
2018-12-05T03:12:17.225Z,99.99
2018-12-05T03:13:17.243Z,99.99
2018-12-05T03:14:17.270Z,99.99
2018-12-05T03:15:17.273Z,99.99
2018-12-05T03:16:17.289Z,99.99
2018-12-05T03:17:17.305Z,99.99
2018-12-05T03:18:17.330Z,99.99
2018-12-05T03:19:17.349Z,99.99
2018-12-05T03:20:17.365Z,99.99
2018-12-05T03:21:17.386Z,99.99
2018-12-05T03:22:17.405Z,99.99
2018-12-05T03:23:17.421Z,99.99
2018-12-05T03:24:17.446Z,99.99
2018-12-05T03:25:17.485Z,99.99
2018-12-05T03:26:17.480Z,99.99
2018-12-05T03:27:17.501Z,99.99
2018-12-05T03:28:17.521Z,99.99
2018-12-05T03:29:17.541Z,99.99
2018-12-05T03:30:17.562Z,99.99
2018-12-05T03:31:17.578Z,99.99
2018-12-05T03:32:17.598Z,99.99
2018-12-05T03:33:17.619Z,99.99
2018-12-05T03:34:17.638Z,99.99
2018-12-05T03:35:18.666Z,99.99
2018-12-05T03:36:17.677Z,99.99
2018-12-05T03:37:17.697Z,99.99
2018-12-05T03:38:17.717Z,99.99
2018-12-05T03:39:17.755Z,99.99
2018-12-05T03:40:17.757Z,99.99
2018-12-05T03:41:17.786Z,99.99
2018-12-05T03:42:17.795Z,99.99
2018-12-05T03:43:17.812Z,99.99
2018-12-05T03:44:17.832Z,99.99
2018-12-05T03:45:17.853Z,99.99
2018-12-05T03:46:17.871Z,99.99
2018-12-05T03:47:17.893Z,99.99
2018-12-05T03:48:17.913Z,99.99
2018-12-05T03:49:17.929Z,99.99
2018-12-05T03:50:17.955Z,99.99
2018-12-05T03:51:17.970Z,99.99
2018-12-05T03:52:17.989Z,99.99
2018-12-05T03:53:18.011Z,99.99
2018-12-05T03:54:18.033Z,99.99
2018-12-05T03:55:18.050Z,99.99
2018-12-05T03:56:18.070Z,99.99
2018-12-05T03:57:18.090Z,99.99
2018-12-05T03:58:18.109Z,99.99
2018-12-05T03:59:18.127Z,99.99
2018-12-05T04:00:18.151Z,99.99
2018-12-05T04:01:18.168Z,99.99
2018-12-05T04:02:18.190Z,99.99
2018-12-05T04:03:18.213Z,99.99
2018-12-05T04:04:18.249Z,99.99
2018-12-05T04:05:18.246Z,99.99
2018-12-05T04:06:18.268Z,99.99
2018-12-05T04:07:18.285Z,99.99
2018-12-05T04:08:18.306Z,99.99
2018-12-05T04:09:18.331Z,99.99
2018-12-05T04:10:18.372Z,99.99
2018-12-05T04:11:18.365Z,99.99
2018-12-05T04:12:18.387Z,99.99
2018-12-05T04:13:18.419Z,99.99
2018-12-05T04:14:18.444Z,99.99
2018-12-05T04:15:18.449Z,99.99
2018-12-05T04:16:18.461Z,99.99
2018-12-05T04:17:18.483Z,99.99
2018-12-05T04:18:18.552Z,99.99
2018-12-05T04:19:18.522Z,99.99
2018-12-05T04:20:18.542Z,99.99
2018-12-05T04:21:18.561Z,99.99
2018-12-05T04:22:18.582Z,99.99
2018-12-05T04:23:18.607Z,99.99
2018-12-05T04:24:18.663Z,99.99
2018-12-05T04:25:18.669Z,99.99
2018-12-05T04:26:18.663Z,99.99
2018-12-05T04:27:18.682Z,99.99
2018-12-05T04:28:18.700Z,99.99
2018-12-05T04:29:18.720Z,99.99
2018-12-05T04:30:18.747Z,99.99
2018-12-05T04:31:18.803Z,99.99
2018-12-05T04:32:18.783Z,99.99
2018-12-05T04:33:18.810Z,99.99
2018-12-05T04:34:18.825Z,99.99
2018-12-05T04:35:18.840Z,99.99
2018-12-05T04:36:18.861Z,99.99
2018-12-05T04:37:18.883Z,99.99
2018-12-05T04:38:18.905Z,99.99
2018-12-05T04:39:18.921Z,99.99
2018-12-05T04:40:18.944Z,99.99
2018-12-05T04:41:18.962Z,99.99
2018-12-05T04:42:18.984Z,99.99
2018-12-05T04:43:19.000Z,99.99
2018-12-05T04:44:19.027Z,99.99
2018-12-05T04:45:19.040Z,99.99
2018-12-05T04:46:19.060Z,99.99
2018-12-05T04:47:19.080Z,99.99
2018-12-05T04:48:19.116Z,99.99
2018-12-05T04:49:19.138Z,99.99
2018-12-05T04:50:19.142Z,99.99
2018-12-05T04:51:19.164Z,99.99
2018-12-05T04:52:19.181Z,99.99
2018-12-05T04:53:19.201Z,99.99
2018-12-05T04:54:19.231Z,99.99
2018-12-05T04:55:19.253Z,99.99
2018-12-05T04:56:19.261Z,99.99
2018-12-05T04:57:19.281Z,99.99
2018-12-05T04:58:19.302Z,99.99
2018-12-05T04:59:19.321Z,99.99
2018-12-05T05:00:19.343Z,99.99
2018-12-05T05:01:19.359Z,99.99
2018-12-05T05:02:19.380Z,99.99
2018-12-05T05:03:19.400Z,99.99
2018-12-05T05:04:19.424Z,99.99
2018-12-05T05:05:19.474Z,99.99
2018-12-05T05:06:19.461Z,99.99
2018-12-05T05:07:19.485Z,99.99
2018-12-05T05:08:19.500Z,99.99
2018-12-05T05:09:19.521Z,99.99
2018-12-05T05:10:19.548Z,99.99
2018-12-05T05:11:19.560Z,99.99
2018-12-05T05:12:19.581Z,99.99
2018-12-05T05:13:19.606Z,99.99
2018-12-05T05:14:19.621Z,99.99
2018-12-05T05:15:19.652Z,99.99
2018-12-05T05:16:19.661Z,99.99
2018-12-05T05:17:19.682Z,99.99
2018-12-05T05:18:19.701Z,99.99
2018-12-05T05:19:19.722Z,99.99
2018-12-05T05:20:19.741Z,99.99
2018-12-05T05:21:19.760Z,99.99
2018-12-05T05:22:19.779Z,99.99
2018-12-05T05:23:19.800Z,99.99
2018-12-05T05:24:19.845Z,99.99
2018-12-05T05:25:19.841Z,99.99
2018-12-05T05:26:19.863Z,99.99
2018-12-05T05:27:19.880Z,99.99
2018-12-05T05:28:19.899Z,99.99
2018-12-05T05:29:19.926Z,99.99
2018-12-05T05:30:19.943Z,99.99
2018-12-05T05:31:19.965Z,99.99
2018-12-05T05:32:19.981Z,99.99
2018-12-05T05:33:20.003Z,99.99
2018-12-05T05:34:20.026Z,99.99
2018-12-05T05:35:20.042Z,99.99
2018-12-05T05:36:20.063Z,99.99
2018-12-05T05:37:20.081Z,99.99
2018-12-05T05:38:20.103Z,99.99
2018-12-05T05:39:20.123Z,99.99
2018-12-05T05:40:20.141Z,99.99
2018-12-05T05:41:20.164Z,99.99
2018-12-05T05:42:20.184Z,99.99
2018-12-05T05:43:20.203Z,99.99
2018-12-05T05:44:20.222Z,99.99
2018-12-05T05:45:20.243Z,99.99
2018-12-05T05:46:20.265Z,99.99
2018-12-05T05:47:20.284Z,99.99
2018-12-05T05:48:20.317Z,99.99
2018-12-05T05:49:20.337Z,99.99
2018-12-05T05:50:20.719Z,99.99
2018-12-05T05:51:20.368Z,99.99
2018-12-05T05:52:20.386Z,99.99
2018-12-05T05:53:20.402Z,99.99
2018-12-05T05:54:20.424Z,99.99
2018-12-05T05:55:20.450Z,99.99
2018-12-05T05:56:20.463Z,99.99
2018-12-05T05:57:20.485Z,99.99
2018-12-05T05:58:20.508Z,99.99
2018-12-05T05:59:20.524Z,99.99
2018-12-05T06:00:20.545Z,99.99
2018-12-05T06:01:20.566Z,99.99
2018-12-05T06:02:20.586Z,99.99
2018-12-05T06:03:20.607Z,99.99
2018-12-05T06:04:20.626Z,99.99
2018-12-05T06:05:20.648Z,99.99
2018-12-05T06:06:20.667Z,99.99
2018-12-05T06:07:20.690Z,99.99
2018-12-05T06:08:20.737Z,99.99
2018-12-05T06:09:20.729Z,99.99
2018-12-05T06:10:20.750Z,99.99
2018-12-05T06:11:20.770Z,99.99
2018-12-05T06:12:20.792Z,99.99
2018-12-05T06:13:20.813Z,99.99
2018-12-05T06:14:20.833Z,99.99
2018-12-05T06:15:20.859Z,99.99
2018-12-05T06:16:20.893Z,99.99
2018-12-05T06:17:20.894Z,99.99
2018-12-05T06:18:20.914Z,99.99
2018-12-05T06:19:20.935Z,99.99
2018-12-05T06:20:20.958Z,99.99
2018-12-05T06:21:20.978Z,99.99
2018-12-05T06:22:20.995Z,99.99
2018-12-05T06:23:21.017Z,99.99
2018-12-05T06:24:21.036Z,99.99
2018-12-05T06:25:21.069Z,99.99
2018-12-05T06:26:21.079Z,99.99
2018-12-05T06:27:21.096Z,99.99
2018-12-05T06:28:21.115Z,99.99
2018-12-05T06:29:21.137Z,99.99
2018-12-05T06:30:21.169Z,99.99
2018-12-05T06:31:21.176Z,99.99
2018-12-05T06:32:21.215Z,99.99
2018-12-05T06:33:21.224Z,99.99
2018-12-05T06:34:21.240Z,99.99
2018-12-05T06:35:21.262Z,99.99
2018-12-05T06:36:21.280Z,99.99
2018-12-05T06:37:21.301Z,99.99
2018-12-05T06:38:21.320Z,99.99
2018-12-05T06:39:21.344Z,99.99
2018-12-05T06:40:21.373Z,99.99
2018-12-05T06:41:21.383Z,99.99
2018-12-05T06:42:21.420Z,99.99
2018-12-05T06:43:21.423Z,99.99
2018-12-05T06:44:21.445Z,99.99
2018-12-05T06:45:21.464Z,99.99
2018-12-05T06:46:21.485Z,99.99
2018-12-05T06:47:21.504Z,99.99
2018-12-05T06:48:21.527Z,99.99
2018-12-05T06:49:21.547Z,99.99
2018-12-05T06:50:21.565Z,99.99
2018-12-05T06:51:21.584Z,99.99
2018-12-05T06:52:21.604Z,99.99
2018-12-05T06:55:08.308Z,99.99
2018-12-05T06:55:53.273Z,99.99
2018-12-05T06:57:46.208Z,99.99
2018-12-05T06:58:46.222Z,99.99
2018-12-05T07:00:39.316Z,99.99
2018-12-05T07:01:39.153Z,99.99
2018-12-05T07:03:32.076Z,99.99
2018-12-05T07:04:32.097Z,99.99
2018-12-05T07:06:25.268Z,99.99
2018-12-05T07:07:25.022Z,99.99
2018-12-05T07:09:17.940Z,99.99
2018-12-05T07:10:17.957Z,99.99
2018-12-05T07:12:11.135Z,99.99
2018-12-05T07:13:10.892Z,99.99
2018-12-05T07:15:03.808Z,99.99
2018-12-05T07:16:03.820Z,99.99
2018-12-05T07:17:57.005Z,99.99
2018-12-05T07:18:56.755Z,99.99
2018-12-05T07:20:49.672Z,99.99
2018-12-05T07:21:49.695Z,99.99
2018-12-05T07:23:55.748Z,99.99
2018-12-05T07:24:42.620Z,99.99
2018-12-05T07:26:35.588Z,99.99
2018-12-05T07:27:35.612Z,99.99
2018-12-05T07:31:00.407Z,99.99
2018-12-05T07:32:00.173Z,99.99
2018-12-05T07:33:53.078Z,99.99
2018-12-05T07:34:53.102Z,99.99
2018-12-05T07:36:46.179Z,99.99
2018-12-05T07:37:46.027Z,99.99
2018-12-05T07:39:38.948Z,99.99
2018-12-05T07:40:38.967Z,99.99
2018-12-05T07:42:32.137Z,99.99
2018-12-05T07:43:31.894Z,99.99
2018-12-05T07:45:24.819Z,99.99
2018-12-05T07:46:24.835Z,99.99
2018-12-05T07:49:49.687Z,99.99
2018-12-05T07:50:49.450Z,99.99
2018-12-05T07:52:42.396Z,99.99
2018-12-05T07:53:42.378Z,99.99
2018-12-05T07:55:35.583Z,99.99
2018-12-05T07:56:35.305Z,99.99
2018-12-05T07:58:28.239Z,99.99
2018-12-05T07:59:28.250Z,99.99
2018-12-05T08:01:22.248Z,99.99
2018-12-05T08:02:21.188Z,99.99
2018-12-05T08:04:14.114Z,99.99
2018-12-05T08:05:14.122Z,99.99
2018-12-05T08:07:07.200Z,99.99
2018-12-05T08:08:07.058Z,99.99
2018-12-05T08:09:59.975Z,99.99
2018-12-05T08:10:59.991Z,99.99
2018-12-05T08:12:53.003Z,99.99
2018-12-05T08:13:52.940Z,99.99
2018-12-05T08:15:45.853Z,99.99
2018-12-05T08:16:45.871Z,99.99
2018-12-05T08:18:39.055Z,99.99
2018-12-05T08:19:38.830Z,99.99
2018-12-05T08:21:31.722Z,99.99
2018-12-05T08:22:31.735Z,99.99
2018-12-05T08:24:24.865Z,99.99
2018-12-05T08:25:24.668Z,99.99
2018-12-05T08:27:17.597Z,99.99
2018-12-05T08:28:17.603Z,99.99
2018-12-05T08:30:10.732Z,99.99
2018-12-05T08:31:10.533Z,99.99
2018-12-05T08:33:03.471Z,99.99
2018-12-05T08:34:03.469Z,99.99
2018-12-05T08:35:56.483Z,99.99
2018-12-05T08:36:56.409Z,99.99
2018-12-05T08:38:49.345Z,99.99
2018-12-05T08:39:49.366Z,99.99
2018-12-05T08:41:42.348Z,99.99
2018-12-05T08:42:42.288Z,99.99
2018-12-05T08:44:35.208Z,99.99
2018-12-05T08:45:35.230Z,99.99
2018-12-05T08:47:33.659Z,99.99
2018-12-05T08:48:28.160Z,99.99
2018-12-05T08:50:21.092Z,99.99
2018-12-05T08:51:21.097Z,99.99
2018-12-05T08:53:14.092Z,99.99
2018-12-05T08:54:20.844Z,99.99
2018-12-05T08:56:06.957Z,99.99
2018-12-05T08:57:06.969Z,99.99
2018-12-05T08:58:59.955Z,99.99
2018-12-05T08:59:59.907Z,99.99
2018-12-05T09:01:52.831Z,99.99
2018-12-05T09:02:52.841Z,99.99
2018-12-05T09:04:45.900Z,99.99
2018-12-05T09:05:45.770Z,99.99
2018-12-05T09:07:38.708Z,99.99
2018-12-05T09:08:38.782Z,99.99
2018-12-05T09:10:31.709Z,99.99
2018-12-05T09:11:31.659Z,99.99
2018-12-05T09:13:24.572Z,99.99
2018-12-05T09:14:28.770Z,99.99
2018-12-05T09:16:17.593Z,99.99
2018-12-05T09:17:17.515Z,99.99
2018-12-05T09:19:10.426Z,99.99
2018-12-05T09:20:10.448Z,99.99
2018-12-05T09:22:03.506Z,99.99
2018-12-05T09:23:03.381Z,99.99
2018-12-05T09:24:56.299Z,99.99
2018-12-05T09:25:56.328Z,99.99
2018-12-05T09:27:49.299Z,99.99
2018-12-05T09:28:49.250Z,99.99
2018-12-05T09:30:42.172Z,99.99
2018-12-05T09:31:42.181Z,99.99
2018-12-05T09:33:35.173Z,99.99
2018-12-05T09:34:35.119Z,99.99
2018-12-05T09:36:28.586Z,99.99
2018-12-05T09:37:28.047Z,99.99
2018-12-05T09:39:22.025Z,99.99
2018-12-05T09:40:20.988Z,99.99
2018-12-05T09:42:13.899Z,99.99
2018-12-05T09:43:13.917Z,99.99
2018-12-05T09:45:06.925Z,99.99
2018-12-05T09:46:06.853Z,99.99
2018-12-05T09:47:59.775Z,99.99
2018-12-05T09:48:59.786Z,99.99
2018-12-05T09:50:52.784Z,99.99
2018-12-05T09:51:52.728Z,99.99
2018-12-05T09:53:45.631Z,99.99
2018-12-05T09:54:45.649Z,99.99
2018-12-05T09:56:38.719Z,99.99
2018-12-05T09:57:38.590Z,99.99
2018-12-05T09:59:31.513Z,99.99
2018-12-05T10:00:31.527Z,99.99
2018-12-05T10:02:25.497Z,99.99
2018-12-05T10:03:24.467Z,99.99
2018-12-05T10:05:17.440Z,99.99
2018-12-05T10:06:17.447Z,99.99
2018-12-05T10:08:10.442Z,99.99
2018-12-05T10:09:10.377Z,99.99
2018-12-05T10:11:03.290Z,99.99
2018-12-05T10:12:03.315Z,99.99
2018-12-05T10:13:56.463Z,99.99
2018-12-05T10:14:56.233Z,99.99
2018-12-05T10:16:49.152Z,99.99
2018-12-05T10:17:49.174Z,99.99
2018-12-05T10:19:42.157Z,99.99
2018-12-05T10:20:42.104Z,99.99
2018-12-05T10:22:35.078Z,99.99
2018-12-05T10:23:35.029Z,99.99
2018-12-05T10:25:28.253Z,99.99
2018-12-05T10:26:28.164Z,99.99
2018-12-05T10:28:21.080Z,99.85
2018-12-05T10:29:21.090Z,99.99
2018-12-05T10:31:14.214Z,98.19
2018-12-05T10:32:14.019Z,98.88
2018-12-05T10:34:06.952Z,98.39
2018-12-05T10:35:06.966Z,99.95
2018-12-05T10:36:59.967Z,99.07
2018-12-05T10:37:59.959Z,99.75
2018-12-05T10:39:52.817Z,98.68
2018-12-05T10:40:52.833Z,98.14
2018-12-05T10:42:46.461Z,97.66
2018-12-05T10:43:45.769Z,98.63
2018-12-05T10:45:38.764Z,98.05
2018-12-05T10:46:38.700Z,97.56
2018-12-05T10:48:31.761Z,97.56
2018-12-05T10:49:31.632Z,97.47
2018-12-05T10:51:24.549Z,96.40
2018-12-05T10:52:24.556Z,95.32
2018-12-05T10:54:18.174Z,97.17
2018-12-05T10:55:17.535Z,96.11
2018-12-05T10:57:10.516Z,95.62
2018-12-05T10:58:10.467Z,93.82
2018-12-05T11:00:03.597Z,93.77
2018-12-05T11:01:03.403Z,94.79
2018-12-05T11:02:57.304Z,94.11
2018-12-05T11:03:57.336Z,95.57
2018-12-05T11:05:50.668Z,93.33
2018-12-05T11:06:50.469Z,94.21
2018-12-05T11:08:43.391Z,92.56
2018-12-05T11:09:43.398Z,92.17
2018-12-05T11:11:44.116Z,91.58
2018-12-05T11:12:36.363Z,92.65
2018-12-05T11:14:30.293Z,92.71
2018-12-05T11:15:30.291Z,92.56
2018-12-05T11:17:24.865Z,92.03
2018-12-05T11:18:23.230Z,91.93
2018-12-05T11:20:17.717Z,91.35
2018-12-05T11:21:17.164Z,91.64
2018-12-05T11:26:26.337Z,91.93
2018-12-05T11:27:13.307Z,92.12
2018-12-05T11:29:06.236Z,91.93
2018-12-05T11:30:06.254Z,91.35
2018-12-05T11:33:53.556Z,90.95
2018-12-05T11:34:30.793Z,91.83
2018-12-05T11:36:23.780Z,90.47
2018-12-05T11:37:23.721Z,91.44
2018-12-05T11:39:22.716Z,90.95
2018-12-05T11:40:16.652Z,91.05
2018-12-05T11:42:10.133Z,91.15
2018-12-05T11:43:09.798Z,91.05
2018-12-05T11:48:06.095Z,91.25
2018-12-05T11:49:05.937Z,90.37
2018-12-05T11:50:58.854Z,90.95
2018-12-05T11:51:58.882Z,90.95
2018-12-05T11:53:52.056Z,90.14
2018-12-05T11:54:51.794Z,88.58
2018-12-05T11:56:44.716Z,90.57
2018-12-05T11:57:44.730Z,90.37
2018-12-05T11:59:37.744Z,91.50
2018-12-05T12:00:37.652Z,90.42
2018-12-05T12:02:30.569Z,89.31
2018-12-05T12:03:30.579Z,90.14
2018-12-05T12:05:24.799Z,88.82
2018-12-05T12:06:23.518Z,90.28
2018-12-05T12:08:16.423Z,90.18
2018-12-05T12:09:16.438Z,89.69
2018-12-05T12:11:41.187Z,89.65
2018-12-05T12:12:09.372Z,90.77
2018-12-05T12:14:02.306Z,89.69
2018-12-05T12:15:02.311Z,89.75
2018-12-05T12:16:55.493Z,88.10
2018-12-05T12:17:55.244Z,89.21
2018-12-05T12:19:48.160Z,89.55
2018-12-05T12:20:48.175Z,89.26
2018-12-05T12:22:41.181Z,87.81
2018-12-05T12:23:41.108Z,88.97
2018-12-05T12:25:34.021Z,88.87
2018-12-05T12:26:34.026Z,88.19
2018-12-05T12:28:27.036Z,86.83
2018-12-05T12:29:26.958Z,87.32
2018-12-05T12:31:19.896Z,88.68
2018-12-05T12:32:19.899Z,87.51
2018-12-05T12:34:12.983Z,86.74
2018-12-05T12:35:12.834Z,88.39
2018-12-05T12:37:05.751Z,89.55
2018-12-05T12:38:05.763Z,88.29
2018-12-05T12:39:58.952Z,90.91
2018-12-05T12:40:58.698Z,88.87
2018-12-05T12:42:51.625Z,89.45
2018-12-05T12:43:51.625Z,89.75
2018-12-05T12:45:44.931Z,90.14
2018-12-05T12:46:44.679Z,88.68
2018-12-05T12:48:37.608Z,89.36
2018-12-05T12:49:37.615Z,89.45
2018-12-05T12:51:30.817Z,88.58
2018-12-05T12:52:30.551Z,88.68
2018-12-05T12:54:23.523Z,87.32
2018-12-05T12:55:23.535Z,87.81
2018-12-05T12:57:16.700Z,88.68
2018-12-05T12:58:16.478Z,87.18
2018-12-05T13:00:10.384Z,87.71
2018-12-05T13:01:10.389Z,87.22
2018-12-05T13:03:03.530Z,87.90
2018-12-05T13:04:03.309Z,87.57
2018-12-05T13:05:56.243Z,86.30
2018-12-05T13:06:56.247Z,85.04
2018-12-05T13:08:49.440Z,85.63
2018-12-05T13:09:49.193Z,86.30
2018-12-05T13:11:42.094Z,86.15
2018-12-05T13:12:42.102Z,86.83
2018-12-05T13:14:35.110Z,88.19
2018-12-05T13:15:35.027Z,87.90
2018-12-05T13:17:27.948Z,87.76
2018-12-05T13:18:27.954Z,85.63
2018-12-05T13:20:21.921Z,85.82
2018-12-05T13:21:20.900Z,86.21
2018-12-05T13:23:13.810Z,85.43
2018-12-05T13:24:13.821Z,86.60
2018-12-05T13:26:06.821Z,85.53
2018-12-05T13:27:06.748Z,87.08
2018-12-05T13:28:59.662Z,86.01
2018-12-05T13:29:59.680Z,85.24
2018-12-05T13:31:52.990Z,84.85
2018-12-05T13:32:52.640Z,85.24
2018-12-05T13:34:45.527Z,86.69
2018-12-05T13:35:45.534Z,86.79
2018-12-05T13:37:38.624Z,83.20
2018-12-05T13:38:38.470Z,83.29
2018-12-05T13:40:31.376Z,84.66
2018-12-05T13:41:31.396Z,84.66
2018-12-05T13:43:24.432Z,84.94
2018-12-05T13:44:24.314Z,84.85
2018-12-05T13:46:17.791Z,84.36
2018-12-05T13:47:17.250Z,82.90
2018-12-05T13:49:10.349Z,84.27
2018-12-05T13:50:10.182Z,84.27
2018-12-05T13:52:03.107Z,84.75
2018-12-05T13:53:03.112Z,83.78
2018-12-05T13:54:57.079Z,84.56
2018-12-05T13:55:56.281Z,84.17
2018-12-05T13:57:49.711Z,84.85
2018-12-05T13:58:49.218Z,84.66
2018-12-05T14:00:43.163Z,84.66
2018-12-05T14:01:42.132Z,83.88
2018-12-05T14:03:35.106Z,83.49
2018-12-05T14:04:35.119Z,81.74
2018-12-05T14:06:28.227Z,83.69
2018-12-05T14:07:28.042Z,82.23
2018-12-05T14:09:20.958Z,82.32
2018-12-05T14:10:20.976Z,84.36
2018-12-05T14:12:14.283Z,83.88
2018-12-05T14:13:13.905Z,83.97
2018-12-05T14:15:06.823Z,82.62
2018-12-05T14:16:06.845Z,81.93
2018-12-05T14:18:01.699Z,82.32
2018-12-05T14:18:59.768Z,83.69
2018-12-05T14:20:52.676Z,84.46
2018-12-05T14:21:52.708Z,83.88
2018-12-05T14:23:45.968Z,79.86
2018-12-05T14:24:45.708Z,80.58
2018-12-05T14:26:38.642Z,81.74
2018-12-05T14:27:38.652Z,81.55
2018-12-05T14:29:31.840Z,82.90
2018-12-05T14:30:31.578Z,82.52
2018-12-05T14:32:24.493Z,82.71
2018-12-05T14:33:24.511Z,81.49
2018-12-05T14:35:17.529Z,82.62
2018-12-05T14:36:17.442Z,82.42
2018-12-05T14:38:10.353Z,79.22
2018-12-05T14:39:10.367Z,81.06
2018-12-05T14:41:03.450Z,80.09
2018-12-05T14:42:03.298Z,79.90
2018-12-05T14:43:56.210Z,79.99
2018-12-05T14:44:56.224Z,79.51
2018-12-05T14:46:49.309Z,79.51
2018-12-05T14:47:49.155Z,78.34
2018-12-05T14:49:42.074Z,79.80
2018-12-05T14:50:42.087Z,78.73
2018-12-05T14:52:35.275Z,77.37
2018-12-05T14:53:35.028Z,76.79
2018-12-05T14:55:27.945Z,78.83
2018-12-05T14:56:27.954Z,78.44
2018-12-05T14:58:20.949Z,79.02
2018-12-05T14:59:20.883Z,78.44
2018-12-05T15:01:13.799Z,80.19
2018-12-05T15:02:13.804Z,78.34
2018-12-05T15:04:06.999Z,79.71
2018-12-05T15:05:06.742Z,79.32
2018-12-05T15:06:59.659Z,79.32
2018-12-05T15:07:59.668Z,79.90
2018-12-05T15:09:52.856Z,81.55
2018-12-05T15:10:52.616Z,80.19
2018-12-05T15:12:46.083Z,79.12
2018-12-05T15:13:45.517Z,78.92
2018-12-05T15:15:38.611Z,75.68
2018-12-05T15:16:38.450Z,76.85
2018-12-05T15:18:31.370Z,75.04
2018-12-05T15:19:31.376Z,75.62
2018-12-05T15:21:24.690Z,77.14
2018-12-05T15:22:24.302Z,77.47
2018-12-05T15:24:17.214Z,77.57
2018-12-05T15:25:17.227Z,77.47
2018-12-05T15:27:10.398Z,75.01
2018-12-05T15:28:10.158Z,74.81
2018-12-05T15:30:03.074Z,76.21
2018-12-05T15:31:03.083Z,75.72
2018-12-05T15:32:56.267Z,77.37
2018-12-05T15:33:56.014Z,77.67
2018-12-05T15:35:48.986Z,75.24
2018-12-05T15:36:48.943Z,74.95
2018-12-05T15:38:42.908Z,76.01
2018-12-05T15:39:41.869Z,75.82
2018-12-05T15:41:34.798Z,76.60
2018-12-05T15:42:35.686Z,76.01